createdAt,value
2019-05-01T00:00:56.622Z,16.13
2019-05-01T00:03:43.488Z,16.11
2019-05-01T00:06:12.079Z,16.09
2019-05-01T00:08:40.778Z,16.34
2019-05-01T00:11:09.546Z,15.80
2019-05-01T00:13:38.246Z,15.95
2019-05-01T00:16:06.823Z,16.02
2019-05-01T00:18:35.305Z,16.24
2019-05-01T00:21:03.924Z,16.03
2019-05-01T00:23:32.516Z,15.89
2019-05-01T00:26:01.117Z,15.71
2019-05-01T00:28:29.801Z,15.75
2019-05-01T00:30:58.298Z,15.98
2019-05-01T00:33:26.896Z,16.08
2019-05-01T00:35:55.392Z,16.24
2019-05-01T00:38:23.994Z,16.07
2019-05-01T00:40:52.580Z,15.32
2019-05-01T00:43:21.185Z,15.72
2019-05-01T00:45:49.746Z,15.47
2019-05-01T00:48:18.362Z,15.48
2019-05-01T00:50:46.952Z,15.41
2019-05-01T00:53:15.563Z,15.34
2019-05-01T00:56:06.506Z,15.38
2019-05-01T00:59:03.758Z,15.29
2019-05-01T01:01:50.113Z,15.35
2019-05-01T01:04:19.613Z,15.00
2019-05-01T01:06:48.090Z,14.96
2019-05-01T01:09:17.100Z,14.84
2019-05-01T01:11:45.682Z,14.87
2019-05-01T01:14:14.298Z,14.80
2019-05-01T01:16:42.776Z,14.83
2019-05-01T01:19:11.490Z,14.92
2019-05-01T01:21:40.092Z,14.63
2019-05-01T01:24:08.706Z,14.65
2019-05-01T01:26:37.357Z,14.72
2019-05-01T01:29:05.860Z,15.12
2019-05-01T01:31:34.356Z,14.98
2019-05-01T01:34:04.220Z,15.14
2019-05-01T01:36:32.759Z,14.98
2019-05-01T01:39:01.570Z,14.80
2019-05-01T01:41:30.702Z,14.94
2019-05-01T01:44:14.989Z,14.69
2019-05-01T01:46:44.145Z,14.78
2019-05-01T01:49:13.122Z,14.38
2019-05-01T01:51:41.912Z,14.44
2019-05-01T01:54:11.042Z,14.26
2019-05-01T01:56:39.720Z,14.04
2019-05-01T01:59:08.741Z,13.99
2019-05-01T02:01:54.688Z,14.18
2019-05-01T02:04:52.044Z,14.03
2019-05-01T02:07:20.730Z,14.34
2019-05-01T02:09:49.405Z,14.65
2019-05-01T02:12:19.235Z,14.68
2019-05-01T02:14:47.918Z,14.57
2019-05-01T02:17:16.322Z,14.44
2019-05-01T02:19:44.946Z,13.99
2019-05-01T02:22:13.578Z,14.05
2019-05-01T02:24:42.094Z,13.96
2019-05-01T02:27:15.915Z,13.96
2019-05-01T02:29:49.321Z,13.89
2019-05-01T02:32:20.324Z,13.76
2019-05-01T02:34:50.023Z,13.79
2019-05-01T02:37:19.997Z,13.76
2019-05-01T02:39:49.867Z,13.89
2019-05-01T02:42:21.068Z,13.74
2019-05-01T02:44:51.582Z,13.55
2019-05-01T02:47:25.277Z,13.70
2019-05-01T02:50:02.308Z,13.40
2019-05-01T02:52:34.527Z,13.31
2019-05-01T02:55:09.354Z,13.50
2019-05-01T02:57:39.948Z,13.23
2019-05-01T03:00:08.937Z,13.17
2019-05-01T03:02:38.381Z,13.28
2019-05-01T03:05:07.806Z,13.15
2019-05-01T03:07:38.331Z,12.89
2019-05-01T03:10:09.473Z,13.20
2019-05-01T03:12:41.142Z,13.59
2019-05-01T03:15:12.106Z,13.72
2019-05-01T03:18:08.991Z,13.40
2019-05-01T03:20:50.786Z,13.10
2019-05-01T03:23:25.938Z,12.97
2019-05-01T03:25:55.194Z,13.18
2019-05-01T03:28:24.002Z,12.71
2019-05-01T03:30:53.113Z,13.22
2019-05-01T03:33:21.686Z,12.88
2019-05-01T03:35:50.388Z,12.52
2019-05-01T03:38:19.281Z,12.53
2019-05-01T03:40:48.289Z,12.68
2019-05-01T03:43:17.028Z,12.89
2019-05-01T03:45:45.643Z,12.86
2019-05-01T03:48:14.176Z,13.12
2019-05-01T03:50:46.557Z,13.06
2019-05-01T03:53:13.480Z,13.50
2019-05-01T03:55:42.065Z,13.09
2019-05-01T03:58:10.594Z,12.77
2019-05-01T04:01:14.020Z,12.94
2019-05-01T04:03:45.974Z,12.86
2019-05-01T04:06:14.773Z,13.06
2019-05-01T04:08:43.857Z,13.23
2019-05-01T04:11:12.465Z,12.97
2019-05-01T04:13:41.054Z,12.71
2019-05-01T04:16:10.071Z,12.59
2019-05-01T04:18:39.115Z,12.69
2019-05-01T04:21:08.637Z,12.81
2019-05-01T04:23:37.516Z,13.17
2019-05-01T04:26:07.061Z,13.41
2019-05-01T04:28:42.991Z,13.29
2019-05-01T04:31:37.111Z,13.39
2019-05-01T04:34:16.409Z,13.30
2019-05-01T04:36:48.402Z,13.22
2019-05-01T04:39:17.417Z,13.27
2019-05-01T04:41:46.256Z,13.48
2019-05-01T04:44:15.785Z,13.31
2019-05-01T04:46:44.524Z,13.40
2019-05-01T04:49:13.101Z,13.46
2019-05-01T04:51:42.007Z,13.48
2019-05-01T04:54:11.008Z,13.50
2019-05-01T04:56:39.702Z,13.48
2019-05-01T04:59:08.511Z,13.55
2019-05-01T05:01:57.295Z,13.62
2019-05-01T05:04:26.536Z,13.72
2019-05-01T05:06:55.318Z,13.67
2019-05-01T05:09:44.421Z,13.93
2019-05-01T05:12:20.960Z,13.88
2019-05-01T05:14:54.472Z,13.93
2019-05-01T05:17:24.013Z,14.21
2019-05-01T05:19:52.635Z,14.32
2019-05-01T05:22:21.935Z,14.57
2019-05-01T05:24:51.143Z,14.67
2019-05-01T05:27:19.786Z,14.91
2019-05-01T05:29:48.508Z,15.22
2019-05-01T05:32:19.797Z,15.25
2019-05-01T05:34:51.883Z,15.27
2019-05-01T05:37:27.528Z,15.44
2019-05-01T05:39:57.657Z,15.56
2019-05-01T05:42:26.401Z,15.68
2019-05-01T05:44:55.316Z,15.91
2019-05-01T05:47:25.553Z,16.20
2019-05-01T05:49:54.188Z,16.26
2019-05-01T05:52:44.461Z,16.15
2019-05-01T05:55:21.918Z,16.24
2019-05-01T05:58:21.863Z,16.31
2019-05-01T06:01:14.990Z,16.29
2019-05-01T06:04:10.701Z,16.37
2019-05-01T06:07:06.877Z,16.62
2019-05-01T06:09:48.146Z,16.74
2019-05-01T06:12:41.771Z,16.77
2019-05-01T06:15:41.144Z,16.97
2019-05-01T06:18:15.782Z,17.09
2019-05-01T06:21:03.941Z,17.14
2019-05-01T06:23:57.448Z,17.24
2019-05-01T06:26:37.085Z,17.32
2019-05-01T06:29:02.926Z,17.42
2019-05-01T06:31:32.595Z,17.31
2019-05-01T06:34:01.361Z,17.17
2019-05-01T06:36:30.721Z,17.30
2019-05-01T06:39:00.239Z,17.39
2019-05-01T06:41:40.630Z,17.27
2019-05-01T06:44:10.529Z,17.42
2019-05-01T06:46:50.370Z,17.48
2019-05-01T06:49:32.676Z,17.60
2019-05-01T06:52:03.321Z,17.73
2019-05-01T06:54:33.153Z,17.78
2019-05-01T06:57:02.766Z,17.68
2019-05-01T06:59:33.246Z,17.74
2019-05-01T07:02:02.795Z,17.92
2019-05-01T07:04:38.081Z,17.98
2019-05-01T07:07:06.840Z,18.11
2019-05-01T07:09:36.045Z,18.44
2019-05-01T07:12:07.998Z,18.57
2019-05-01T07:14:36.799Z,18.44
2019-05-01T07:17:08.963Z,18.16
2019-05-01T07:20:07.381Z,18.22
2019-05-01T07:22:37.011Z,18.37
2019-05-01T07:25:07.717Z,18.34
2019-05-01T07:27:36.330Z,18.37
2019-05-01T07:30:20.940Z,18.37
2019-05-01T07:32:49.917Z,18.36
2019-05-01T07:35:18.819Z,18.49
2019-05-01T07:37:47.924Z,18.34
2019-05-01T07:40:20.704Z,18.52
2019-05-01T07:42:51.270Z,18.27
2019-05-01T07:45:45.536Z,18.32
2019-05-01T07:48:16.836Z,18.50
2019-05-01T07:50:45.644Z,18.68
2019-05-01T07:53:14.225Z,18.74
2019-05-01T07:55:43.232Z,18.88
2019-05-01T07:58:15.893Z,18.85
2019-05-01T08:00:52.336Z,18.89
2019-05-01T08:03:21.429Z,19.07
2019-05-01T08:05:49.952Z,19.05
2019-05-01T08:08:18.472Z,19.03
2019-05-01T08:10:46.967Z,19.11
2019-05-01T08:13:15.347Z,19.36
2019-05-01T08:15:43.948Z,19.36
2019-05-01T08:18:16.936Z,19.54
2019-05-01T08:20:50.555Z,19.69
2019-05-01T08:23:20.218Z,19.66
2019-05-01T08:25:48.841Z,19.51
2019-05-01T08:28:22.867Z,19.23
2019-05-01T08:31:11.006Z,19.46
2019-05-01T08:33:56.357Z,19.54
2019-05-01T08:36:24.868Z,19.62
2019-05-01T08:38:53.713Z,19.63
2019-05-01T08:41:22.266Z,19.63
2019-05-01T08:43:54.086Z,19.79
2019-05-01T08:46:46.753Z,19.89
2019-05-01T08:49:30.061Z,19.99
2019-05-01T08:51:58.557Z,19.88
2019-05-01T08:54:29.008Z,19.81
2019-05-01T08:56:58.130Z,19.83
2019-05-01T08:59:27.878Z,19.79
2019-05-01T09:02:08.841Z,20.03
2019-05-01T09:04:30.626Z,19.89
2019-05-01T09:06:57.223Z,20.06
2019-05-01T09:09:25.757Z,20.20
2019-05-01T09:11:54.796Z,20.32
2019-05-01T09:14:23.916Z,20.52
2019-05-01T09:16:52.674Z,20.41
2019-05-01T09:19:21.323Z,20.22
2019-05-01T09:21:49.851Z,20.42
2019-05-01T09:24:18.357Z,20.35
2019-05-01T09:27:12.459Z,20.15
2019-05-01T09:29:46.830Z,19.85
2019-05-01T09:32:14.850Z,20.17
2019-05-01T09:34:43.352Z,20.29
2019-05-01T09:37:12.052Z,20.43
2019-05-01T09:39:41.254Z,20.60
2019-05-01T09:42:10.071Z,20.57
2019-05-01T09:44:38.433Z,20.82
2019-05-01T09:47:07.833Z,20.76
2019-05-01T09:49:36.437Z,20.72
2019-05-01T09:52:24.964Z,20.94
2019-05-01T09:55:01.119Z,21.15
2019-05-01T09:57:29.769Z,21.05
2019-05-01T09:59:58.374Z,21.12
2019-05-01T10:02:26.860Z,20.72
2019-05-01T10:04:55.360Z,20.76
2019-05-01T10:07:28.738Z,20.71
2019-05-01T10:09:54.317Z,20.94
2019-05-01T10:12:22.813Z,20.85
2019-05-01T10:14:51.447Z,20.70
2019-05-01T10:17:19.936Z,20.71
2019-05-01T10:19:50.150Z,20.81
2019-05-01T10:22:18.995Z,20.86
2019-05-01T10:24:47.614Z,21.04
2019-05-01T10:27:19.628Z,21.24
2019-05-01T10:30:17.017Z,20.95
2019-05-01T10:32:52.808Z,21.12
2019-05-01T10:35:44.501Z,21.10
2019-05-01T10:38:13.093Z,20.95
2019-05-01T10:40:41.788Z,21.02
2019-05-01T10:43:10.387Z,21.26
2019-05-01T10:45:38.997Z,21.09
2019-05-01T10:48:07.606Z,21.03
2019-05-01T10:50:36.090Z,21.03
2019-05-01T10:53:04.928Z,21.02
2019-05-01T10:55:33.530Z,21.19
2019-05-01T10:58:03.378Z,20.84
2019-05-01T11:00:32.871Z,20.72
2019-05-01T11:03:01.453Z,20.96
2019-05-01T11:05:30.043Z,20.98
2019-05-01T11:07:58.650Z,21.19
2019-05-01T11:10:27.163Z,21.19
2019-05-01T11:12:55.857Z,21.31
2019-05-01T11:15:24.429Z,21.68
2019-05-01T11:17:53.037Z,21.67
2019-05-01T11:20:21.739Z,21.50
2019-05-01T11:22:50.237Z,21.58
2019-05-01T11:25:20.032Z,21.44
2019-05-01T11:27:48.535Z,21.66
2019-05-01T11:30:17.219Z,21.65
2019-05-01T11:33:03.940Z,22.00
2019-05-01T11:35:50.659Z,21.88
2019-05-01T11:38:38.698Z,21.77
2019-05-01T11:41:20.466Z,21.78
2019-05-01T11:43:49.061Z,21.97
2019-05-01T11:46:17.658Z,21.85
2019-05-01T11:48:46.260Z,22.09
2019-05-01T11:51:14.777Z,22.00
2019-05-01T11:53:43.275Z,21.90
2019-05-01T11:56:11.886Z,22.03
2019-05-01T11:58:40.490Z,22.02
2019-05-01T12:01:11.001Z,21.90
2019-05-01T12:03:39.589Z,21.99
2019-05-01T12:06:08.274Z,21.84
2019-05-01T12:08:37.228Z,21.81
2019-05-01T12:11:07.830Z,21.91
2019-05-01T12:13:43.478Z,21.94
2019-05-01T12:16:17.249Z,21.88
2019-05-01T12:18:45.770Z,21.84
2019-05-01T12:21:14.387Z,21.64
2019-05-01T12:23:42.919Z,21.83
2019-05-01T12:26:11.514Z,21.92
2019-05-01T12:28:40.032Z,22.09
2019-05-01T12:31:08.833Z,22.24
2019-05-01T12:33:37.470Z,22.10
2019-05-01T12:36:07.385Z,22.21
2019-05-01T12:38:36.289Z,22.20
2019-05-01T12:41:26.402Z,22.18
2019-05-01T12:43:54.999Z,22.17
2019-05-01T12:46:47.618Z,22.19
2019-05-01T12:49:16.239Z,22.32
2019-05-01T12:51:47.184Z,22.24
2019-05-01T12:54:34.066Z,22.31
2019-05-01T12:57:02.952Z,22.17
2019-05-01T12:59:31.651Z,22.16
2019-05-01T13:02:00.252Z,22.23
2019-05-01T13:04:28.785Z,22.01
2019-05-01T13:06:58.198Z,22.18
2019-05-01T13:09:26.893Z,21.87
2019-05-01T13:11:55.525Z,21.96
2019-05-01T13:14:24.118Z,21.90
2019-05-01T13:16:52.694Z,21.86
2019-05-01T13:19:21.315Z,21.74
2019-05-01T13:21:49.914Z,21.84
2019-05-01T13:24:18.503Z,21.84
2019-05-01T13:26:59.805Z,21.82
2019-05-01T13:29:33.522Z,22.34
2019-05-01T13:32:14.184Z,22.46
2019-05-01T13:34:43.408Z,22.49
2019-05-01T13:37:11.914Z,22.14
2019-05-01T13:39:40.630Z,22.40
2019-05-01T13:42:09.523Z,22.27
2019-05-01T13:44:38.045Z,22.33
2019-05-01T13:47:06.737Z,22.42
2019-05-01T13:49:35.418Z,22.33
2019-05-01T13:52:04.147Z,22.25
2019-05-01T13:54:32.845Z,22.38
2019-05-01T13:57:01.649Z,22.36
2019-05-01T13:59:30.190Z,22.53
2019-05-01T14:01:59.082Z,22.42
2019-05-01T14:04:27.896Z,22.45
2019-05-01T14:06:56.395Z,22.25
2019-05-01T14:09:33.059Z,22.56
2019-05-01T14:12:01.917Z,22.42
2019-05-01T14:14:30.674Z,22.36
2019-05-01T14:16:59.177Z,22.43
2019-05-01T14:19:28.239Z,22.25
2019-05-01T14:22:22.703Z,22.23
2019-05-01T14:24:54.627Z,22.29
2019-05-01T14:27:23.330Z,22.19
2019-05-01T14:29:52.014Z,21.97
2019-05-01T14:32:20.749Z,22.20
2019-05-01T14:34:49.458Z,22.32
2019-05-01T14:37:29.057Z,22.29
2019-05-01T14:39:48.644Z,22.30
2019-05-01T14:42:17.835Z,22.01
2019-05-01T14:44:46.323Z,21.95
2019-05-01T14:47:15.293Z,22.03
2019-05-01T14:49:43.957Z,21.92
2019-05-01T14:52:12.675Z,21.99
2019-05-01T14:54:41.272Z,21.73
2019-05-01T14:57:09.958Z,21.51
2019-05-01T14:59:38.469Z,21.10
2019-05-01T15:02:07.002Z,20.20
2019-05-01T15:04:35.734Z,20.19
2019-05-01T15:07:04.554Z,19.50
2019-05-01T15:09:33.263Z,18.90
2019-05-01T15:12:02.497Z,18.89
2019-05-01T15:14:53.952Z,18.77
2019-05-01T15:17:45.361Z,18.51
2019-05-01T15:20:14.682Z,18.52
2019-05-01T15:22:43.299Z,18.15
2019-05-01T15:25:11.811Z,18.22
2019-05-01T15:27:40.494Z,18.33
2019-05-01T15:30:09.403Z,18.02
2019-05-01T15:32:38.427Z,17.77
2019-05-01T15:35:07.146Z,17.80
2019-05-01T15:37:35.872Z,17.54
2019-05-01T15:40:37.152Z,17.36
2019-05-01T15:43:37.006Z,17.32
2019-05-01T15:46:05.509Z,17.13
2019-05-01T15:48:34.204Z,17.31
2019-05-01T15:51:02.845Z,17.64
2019-05-01T15:53:32.136Z,17.93
2019-05-01T15:56:00.830Z,17.93
2019-05-01T15:58:29.776Z,17.56
2019-05-01T16:00:58.597Z,17.37
2019-05-01T16:03:27.316Z,17.55
2019-05-01T16:05:56.012Z,17.92
2019-05-01T16:08:25.313Z,18.45
2019-05-01T16:11:06.676Z,18.37
2019-05-01T16:13:35.307Z,17.97
2019-05-01T16:16:03.864Z,18.13
2019-05-01T16:18:32.505Z,17.92
2019-05-01T16:21:01.383Z,17.87
2019-05-01T16:23:30.070Z,18.28
2019-05-01T16:25:58.656Z,18.02
2019-05-01T16:28:27.256Z,18.47
2019-05-01T16:30:56.563Z,18.00
2019-05-01T16:33:25.174Z,18.06
2019-05-01T16:35:53.970Z,18.22
2019-05-01T16:38:30.414Z,18.46
2019-05-01T16:41:03.011Z,18.33
2019-05-01T16:43:31.904Z,18.29
2019-05-01T16:46:00.658Z,18.35
2019-05-01T16:48:29.371Z,17.54
2019-05-01T16:50:58.184Z,17.69
2019-05-01T16:53:26.817Z,17.78
2019-05-01T16:55:55.520Z,17.73
2019-05-01T16:58:24.321Z,17.90
2019-05-01T17:01:04.116Z,17.76
2019-05-01T17:03:55.215Z,18.07
2019-05-01T17:06:46.075Z,17.74
2019-05-01T17:09:36.646Z,17.98
2019-05-01T17:12:05.786Z,18.25
2019-05-01T17:14:34.597Z,18.12
2019-05-01T17:17:05.715Z,17.92
2019-05-01T17:19:34.578Z,17.82
2019-05-01T17:22:03.168Z,18.12
2019-05-01T17:24:31.769Z,17.60
2019-05-01T17:27:00.593Z,17.69
2019-05-01T17:29:29.247Z,17.53
2019-05-01T17:31:57.788Z,17.77
2019-05-01T17:34:30.771Z,17.56
2019-05-01T17:36:58.316Z,17.57
2019-05-01T17:39:27.235Z,17.98
2019-05-01T17:41:57.590Z,17.67
2019-05-01T17:44:27.004Z,17.53
2019-05-01T17:46:55.587Z,17.37
2019-05-01T17:49:24.208Z,17.52
2019-05-01T17:51:52.824Z,17.35
2019-05-01T17:54:21.455Z,17.58
2019-05-01T17:56:53.854Z,17.74
2019-05-01T17:59:24.027Z,17.87
2019-05-01T18:02:05.241Z,17.28
2019-05-01T18:04:56.178Z,17.08
2019-05-01T18:07:28.771Z,17.42
2019-05-01T18:09:57.011Z,17.64
2019-05-01T18:12:28.555Z,17.62
2019-05-01T18:14:56.572Z,17.44
2019-05-01T18:17:25.879Z,17.32
2019-05-01T18:19:54.467Z,17.74
2019-05-01T18:22:37.268Z,17.93
2019-05-01T18:25:40.777Z,17.71
2019-05-01T18:28:18.774Z,17.54
2019-05-01T18:30:51.633Z,17.42
2019-05-01T18:33:22.086Z,17.47
2019-05-01T18:35:49.362Z,17.64
2019-05-01T18:38:33.531Z,17.70
2019-05-01T18:41:27.690Z,17.55
2019-05-01T18:43:56.403Z,17.64
2019-05-01T18:46:25.312Z,17.72
2019-05-01T18:48:53.964Z,17.63
2019-05-01T18:51:22.669Z,17.46
2019-05-01T18:53:51.278Z,17.57
2019-05-01T18:56:19.999Z,17.29
2019-05-01T18:58:48.499Z,17.33
2019-05-01T19:01:17.375Z,17.21
2019-05-01T19:03:45.887Z,17.12
2019-05-01T19:06:14.727Z,17.40
2019-05-01T19:08:43.324Z,17.48
2019-05-01T19:11:13.265Z,17.35
2019-05-01T19:13:42.010Z,17.48
2019-05-01T19:16:10.616Z,17.30
2019-05-01T19:18:39.201Z,17.48
2019-05-01T19:21:09.137Z,17.29
2019-05-01T19:23:37.734Z,17.22
2019-05-01T19:26:07.015Z,17.32
2019-05-01T19:28:36.097Z,17.50
2019-05-01T19:31:04.692Z,17.29
2019-05-01T19:33:33.316Z,17.28
2019-05-01T19:36:07.550Z,17.01
2019-05-01T19:38:34.801Z,17.16
2019-05-01T19:41:08.870Z,17.09
2019-05-01T19:43:35.930Z,17.02
2019-05-01T19:46:05.691Z,17.03
2019-05-01T19:48:34.200Z,16.95
2019-05-01T19:51:02.770Z,16.97
2019-05-01T19:53:31.488Z,17.07
2019-05-01T19:56:00.172Z,17.13
2019-05-01T19:58:28.811Z,16.68
2019-05-01T20:00:59.452Z,16.38
2019-05-01T20:03:30.674Z,16.43
2019-05-01T20:05:59.453Z,16.70
2019-05-01T20:08:29.228Z,16.62
2019-05-01T20:10:57.922Z,16.64
2019-05-01T20:13:26.531Z,16.73
2019-05-01T20:15:55.127Z,16.66
2019-05-01T20:18:23.729Z,16.83
2019-05-01T20:20:52.519Z,16.78
2019-05-01T20:23:21.026Z,16.80
2019-05-01T20:25:51.088Z,16.67
2019-05-01T20:28:22.260Z,16.50
2019-05-01T20:30:50.554Z,16.38
2019-05-01T20:33:19.161Z,16.45
2019-05-01T20:35:47.962Z,16.46
2019-05-01T20:38:16.549Z,16.43
2019-05-01T20:40:45.040Z,16.48
2019-05-01T20:43:13.540Z,16.41
2019-05-01T20:45:44.907Z,16.38
2019-05-01T20:48:12.619Z,16.23
2019-05-01T20:50:41.607Z,15.99
2019-05-01T20:53:10.186Z,16.26
2019-05-01T20:55:39.576Z,16.49
2019-05-01T20:58:18.200Z,16.57
2019-05-01T21:00:53.411Z,16.47
2019-05-01T21:03:20.100Z,16.29
2019-05-01T21:05:57.330Z,16.40
2019-05-01T21:08:39.765Z,16.45
2019-05-01T21:11:13.044Z,16.15
2019-05-01T21:13:41.593Z,16.30
2019-05-01T21:16:10.226Z,16.32
2019-05-01T21:18:38.799Z,16.22
2019-05-01T21:21:07.387Z,16.02
2019-05-01T21:23:36.667Z,16.02
2019-05-01T21:26:05.471Z,16.35
2019-05-01T21:28:34.204Z,16.20
2019-05-01T21:31:03.945Z,16.01
2019-05-01T21:33:33.990Z,16.01
2019-05-01T21:36:04.785Z,15.56
2019-05-01T21:38:34.335Z,15.51
2019-05-01T21:41:02.973Z,15.90
2019-05-01T21:43:35.268Z,15.83
2019-05-01T21:46:03.946Z,15.67
2019-05-01T21:48:33.385Z,15.62
2019-05-01T21:51:05.457Z,15.74
2019-05-01T21:53:32.881Z,15.93
2019-05-01T21:56:02.266Z,15.59
2019-05-01T21:58:33.948Z,15.39
2019-05-01T22:01:04.648Z,15.60
2019-05-01T22:03:33.255Z,15.49
2019-05-01T22:06:01.938Z,15.40
2019-05-01T22:08:34.531Z,15.53
2019-05-01T22:11:01.843Z,15.55
2019-05-01T22:13:31.650Z,15.18
2019-05-01T22:16:18.408Z,15.09
2019-05-01T22:19:04.037Z,15.23
2019-05-01T22:21:58.254Z,15.22
2019-05-01T22:25:01.781Z,15.16
2019-05-01T22:27:35.445Z,15.48
2019-05-01T22:30:46.161Z,15.45
2019-05-01T22:33:13.504Z,15.51
2019-05-01T22:35:47.083Z,15.39
2019-05-01T22:38:15.556Z,15.29
2019-05-01T22:41:06.907Z,15.40
2019-05-01T22:43:34.192Z,15.15
2019-05-01T22:46:04.285Z,15.29
2019-05-01T22:48:32.790Z,15.10
2019-05-01T22:51:08.545Z,15.27
2019-05-01T22:53:37.147Z,14.94
2019-05-01T22:56:05.949Z,15.26
2019-05-01T22:58:34.631Z,15.08
2019-05-01T23:01:04.313Z,15.23
2019-05-01T23:03:47.192Z,15.15
2019-05-01T23:06:16.663Z,15.43
2019-05-01T23:08:45.195Z,15.49
2019-05-01T23:11:20.264Z,15.18
2019-05-01T23:13:44.068Z,14.91
2019-05-01T23:16:13.879Z,15.00
2019-05-01T23:18:42.350Z,14.87
2019-05-01T23:21:14.494Z,14.96
2019-05-01T23:23:41.245Z,15.07
2019-05-01T23:26:11.717Z,15.31
2019-05-01T23:28:41.023Z,15.03
2019-05-01T23:31:09.647Z,14.94
2019-05-01T23:33:38.101Z,14.83
2019-05-01T23:36:06.780Z,14.64
2019-05-01T23:38:35.371Z,14.64
2019-05-01T23:41:03.984Z,15.12
2019-05-01T23:43:32.568Z,14.82
2019-05-01T23:46:01.255Z,14.65
2019-05-01T23:48:29.851Z,15.05
2019-05-01T23:50:58.431Z,14.96
2019-05-01T23:53:27.009Z,15.03
2019-05-01T23:56:00.194Z,14.68
2019-05-01T23:58:26.103Z,14.63
